createdAt,value
2019-04-04T00:00:16.244Z,28.50
2019-04-04T00:02:49.813Z,25.10
2019-04-04T00:05:38.726Z,33.93
2019-04-04T00:08:09.222Z,32.63
2019-04-04T00:10:42.232Z,29.70
2019-04-04T00:13:14.649Z,34.47
2019-04-04T00:15:45.599Z,32.07
2019-04-04T00:18:16.782Z,35.87
2019-04-04T00:20:47.595Z,35.83
2019-04-04T00:23:17.904Z,29.50
2019-04-04T00:25:48.621Z,28.83
2019-04-04T00:28:19.537Z,33.93
2019-04-04T00:30:50.298Z,35.97
2019-04-04T00:33:23.838Z,29.77
2019-04-04T00:35:54.939Z,33.73
2019-04-04T00:38:25.802Z,32.23
2019-04-04T00:40:56.650Z,33.30
2019-04-04T00:43:26.961Z,31.83
2019-04-04T00:46:00.414Z,35.03
2019-04-04T00:48:34.059Z,32.30
2019-04-04T00:51:07.722Z,28.87
2019-04-04T00:53:36.874Z,33.33
2019-04-04T00:56:07.734Z,33.23
2019-04-04T00:58:39.421Z,29.50
2019-04-04T01:01:10.145Z,34.67
2019-04-04T01:03:40.617Z,34.03
2019-04-04T01:06:11.129Z,33.80
2019-04-04T01:08:42.057Z,31.90
2019-04-04T01:11:12.612Z,42.60
2019-04-04T01:13:43.547Z,37.90
2019-04-04T01:16:14.202Z,39.10
2019-04-04T01:18:45.025Z,40.17
2019-04-04T01:21:15.946Z,42.40
2019-04-04T01:23:46.786Z,36.27
2019-04-04T01:26:17.706Z,38.07
2019-04-04T01:28:48.238Z,39.30
2019-04-04T01:31:18.987Z,39.27
2019-04-04T01:33:51.652Z,41.63
2019-04-04T01:36:23.164Z,44.23
2019-04-04T01:38:54.173Z,39.57
2019-04-04T01:41:24.845Z,40.53
2019-04-04T01:44:04.529Z,39.83
2019-04-04T01:46:27.620Z,46.60
2019-04-04T01:48:58.591Z,42.43
2019-04-04T01:51:29.001Z,38.80
2019-04-04T01:54:01.048Z,35.50
2019-04-04T01:56:31.860Z,37.57
2019-04-04T01:59:02.697Z,33.03
2019-04-04T02:01:34.283Z,41.43
2019-04-04T02:04:05.252Z,38.20
2019-04-04T02:06:35.842Z,38.43
2019-04-04T02:09:08.082Z,42.23
2019-04-04T02:11:41.541Z,40.13
2019-04-04T02:14:12.741Z,38.00
2019-04-04T02:16:43.371Z,43.17
2019-04-04T02:19:13.972Z,48.57
2019-04-04T02:21:44.392Z,45.83
2019-04-04T02:24:16.361Z,48.07
2019-04-04T02:26:46.889Z,48.40
2019-04-04T02:29:17.486Z,50.77
2019-04-04T02:31:53.760Z,59.70
2019-04-04T02:34:24.107Z,56.90
2019-04-04T02:36:54.638Z,62.87
2019-04-04T02:39:25.246Z,62.97
2019-04-04T02:41:55.992Z,64.17
2019-04-04T02:44:26.701Z,65.73
2019-04-04T02:46:57.300Z,69.13
2019-04-04T02:49:29.366Z,60.13
2019-04-04T02:52:00.148Z,67.67
2019-04-04T02:54:30.812Z,62.70
2019-04-04T02:57:01.867Z,63.70
2019-04-04T02:59:32.397Z,68.57
2019-04-04T03:02:05.859Z,66.23
2019-04-04T03:04:35.704Z,69.73
2019-04-04T03:07:06.787Z,75.57
2019-04-04T03:09:42.176Z,76.57
2019-04-04T03:12:09.707Z,87.77
2019-04-04T03:14:42.176Z,98.53
2019-04-04T03:17:12.978Z,97.90
2019-04-04T03:19:44.677Z,80.50
2019-04-04T03:22:18.904Z,97.77
2019-04-04T03:24:50.531Z,95.80
2019-04-04T03:27:25.768Z,79.03
2019-04-04T03:29:54.767Z,88.07
2019-04-04T03:32:25.349Z,97.23
2019-04-04T03:34:56.279Z,80.27
2019-04-04T03:37:26.959Z,89.83
2019-04-04T03:39:57.652Z,78.10
2019-04-04T03:42:29.278Z,76.63
2019-04-04T03:44:59.885Z,72.27
2019-04-04T03:47:30.613Z,82.87
2019-04-04T03:50:01.568Z,70.00
2019-04-04T03:52:32.200Z,74.57
2019-04-04T03:55:02.649Z,75.53
2019-04-04T03:57:33.236Z,78.97
2019-04-04T04:00:07.076Z,89.70
2019-04-04T04:02:36.584Z,84.60
2019-04-04T04:05:24.651Z,93.53
2019-04-04T04:07:55.461Z,88.37
2019-04-04T04:10:26.094Z,96.43
2019-04-04T04:12:57.021Z,82.40
2019-04-04T04:15:30.373Z,81.20
2019-04-04T04:17:59.883Z,77.73
2019-04-04T04:20:30.688Z,75.93
2019-04-04T04:23:01.521Z,77.00
2019-04-04T04:25:35.324Z,67.40
2019-04-04T04:28:04.527Z,72.90
2019-04-04T04:30:39.283Z,72.87
2019-04-04T04:33:08.293Z,104.83
2019-04-04T04:35:41.906Z,81.73
2019-04-04T04:38:11.955Z,96.50
2019-04-04T04:40:46.941Z,88.03
2019-04-04T04:43:16.079Z,78.97
2019-04-04T04:45:46.957Z,79.93
2019-04-04T04:48:19.641Z,84.03
2019-04-04T04:50:50.855Z,81.33
2019-04-04T04:53:21.330Z,69.43
2019-04-04T04:55:52.203Z,75.10
2019-04-04T04:58:23.077Z,84.87
2019-04-04T05:00:53.835Z,95.90
2019-04-04T05:03:24.855Z,85.30
2019-04-04T05:05:55.631Z,86.30
2019-04-04T05:08:26.812Z,87.20
2019-04-04T05:10:57.838Z,95.77
2019-04-04T05:13:28.975Z,100.67
2019-04-04T05:15:59.797Z,86.53
2019-04-04T05:18:30.347Z,85.00
2019-04-04T05:21:02.654Z,84.20
2019-04-04T05:23:33.386Z,83.17
2019-04-04T05:26:09.567Z,76.80
2019-04-04T05:28:41.827Z,79.27
2019-04-04T05:31:12.047Z,79.93
2019-04-04T05:33:44.066Z,72.57
2019-04-04T05:36:15.552Z,72.30
2019-04-04T05:38:47.295Z,103.40
2019-04-04T05:41:19.178Z,80.50
2019-04-04T05:43:50.026Z,90.33
2019-04-04T05:46:24.985Z,79.07
2019-04-04T05:48:57.691Z,78.00
2019-04-04T05:51:29.036Z,78.53
2019-04-04T05:54:06.981Z,69.83
2019-04-04T05:56:37.881Z,81.13
2019-04-04T05:59:09.129Z,71.50
2019-04-04T06:01:43.260Z,71.07
2019-04-04T06:04:14.444Z,69.53
2019-04-04T06:06:55.802Z,74.33
2019-04-04T06:09:28.068Z,65.00
2019-04-04T06:12:06.069Z,67.17
2019-04-04T06:14:37.338Z,63.17
2019-04-04T06:17:09.360Z,62.10
2019-04-04T06:19:44.355Z,61.40
2019-04-04T06:22:14.517Z,62.97
2019-04-04T06:24:48.167Z,67.07
2019-04-04T06:27:18.847Z,58.70
2019-04-04T06:29:51.514Z,63.10
2019-04-04T06:32:23.147Z,65.10
2019-04-04T06:34:56.644Z,63.93
2019-04-04T06:37:27.708Z,57.63
2019-04-04T06:39:59.574Z,68.30
2019-04-04T06:42:35.680Z,60.83
2019-04-04T06:45:03.651Z,58.57
2019-04-04T06:47:35.959Z,60.90
2019-04-04T06:50:08.567Z,62.93
2019-04-04T06:52:41.150Z,54.33
2019-04-04T06:55:13.184Z,54.73
2019-04-04T06:57:53.797Z,55.83
2019-04-04T07:00:29.237Z,51.17
2019-04-04T07:03:03.056Z,52.57
2019-04-04T07:05:37.936Z,44.97
2019-04-04T07:08:07.973Z,62.47
2019-04-04T07:10:40.876Z,52.63
2019-04-04T07:13:22.213Z,47.23
2019-04-04T07:16:03.476Z,49.37
2019-04-04T07:18:21.888Z,44.67
2019-04-04T07:20:52.937Z,50.37
2019-04-04T07:23:27.364Z,42.00
2019-04-04T07:25:56.597Z,45.23
2019-04-04T07:28:30.611Z,56.83
2019-04-04T07:31:04.726Z,48.87
2019-04-04T07:33:37.009Z,45.67
2019-04-04T07:36:09.727Z,50.10
2019-04-04T07:38:41.034Z,46.40
2019-04-04T07:41:16.257Z,45.67
2019-04-04T07:43:51.354Z,44.40
2019-04-04T07:46:23.742Z,42.40
2019-04-04T07:48:55.694Z,45.87
2019-04-04T07:51:28.133Z,45.57
2019-04-04T07:54:01.545Z,51.47
2019-04-04T07:56:33.007Z,44.93
2019-04-04T07:59:04.351Z,43.73
2019-04-04T08:01:35.158Z,58.67
2019-04-04T08:04:10.441Z,51.50
2019-04-04T08:06:45.324Z,43.07
2019-04-04T08:09:16.564Z,47.97
2019-04-04T08:11:49.057Z,44.83
2019-04-04T08:14:21.928Z,46.63
2019-04-04T08:16:53.715Z,43.57
2019-04-04T08:19:27.705Z,47.70
2019-04-04T08:21:59.100Z,48.63
2019-04-04T08:24:35.763Z,47.10
2019-04-04T08:27:07.089Z,56.87
2019-04-04T08:29:39.529Z,51.20
2019-04-04T08:32:14.112Z,48.63
2019-04-04T08:34:45.774Z,50.07
2019-04-04T08:37:17.088Z,53.87
2019-04-04T08:39:49.300Z,47.37
2019-04-04T08:42:21.771Z,47.97
2019-04-04T08:44:56.563Z,41.40
2019-04-04T08:47:28.218Z,54.57
2019-04-04T08:49:59.919Z,46.37
2019-04-04T08:52:46.498Z,44.77
2019-04-04T08:55:19.690Z,45.03
2019-04-04T08:57:50.746Z,46.63
2019-04-04T09:00:22.838Z,50.37
2019-04-04T09:02:55.254Z,60.63
2019-04-04T09:05:27.581Z,55.17
2019-04-04T09:07:58.615Z,53.97
2019-04-04T09:10:30.552Z,47.53
2019-04-04T09:13:04.732Z,48.97
2019-04-04T09:15:38.674Z,45.73
2019-04-04T09:18:24.659Z,57.07
2019-04-04T09:21:01.359Z,50.83
2019-04-04T09:23:29.588Z,53.90
2019-04-04T09:26:05.738Z,52.10
2019-04-04T09:28:34.981Z,50.63
2019-04-04T09:31:06.773Z,52.90
2019-04-04T09:33:38.368Z,53.77
2019-04-04T09:36:14.060Z,50.10
2019-04-04T09:38:46.253Z,53.87
2019-04-04T09:41:18.330Z,53.13
2019-04-04T09:43:52.084Z,51.00
2019-04-04T09:46:26.232Z,52.50
2019-04-04T09:48:57.685Z,48.00
2019-04-04T09:51:32.150Z,55.07
2019-04-04T09:54:03.754Z,62.33
2019-04-04T09:56:35.670Z,59.40
2019-04-04T09:59:08.330Z,55.20
2019-04-04T10:01:40.415Z,51.97
2019-04-04T10:04:12.337Z,52.67
2019-04-04T10:06:44.917Z,48.20
2019-04-04T10:09:59.084Z,51.63
2019-04-04T10:12:31.633Z,49.23
2019-04-04T10:15:04.606Z,45.77
2019-04-04T10:17:40.027Z,53.97
2019-04-04T10:20:15.845Z,54.77
2019-04-04T10:22:50.253Z,56.37
2019-04-04T10:25:22.471Z,57.27
2019-04-04T10:27:54.576Z,52.70
2019-04-04T10:30:28.933Z,50.83
2019-04-04T10:33:06.618Z,53.63
2019-04-04T10:35:45.144Z,58.00
2019-04-04T10:38:17.164Z,49.03
2019-04-04T10:40:54.390Z,49.70
2019-04-04T10:43:26.154Z,52.80
2019-04-04T10:46:00.079Z,53.77
2019-04-04T10:48:33.204Z,48.80
2019-04-04T10:51:05.369Z,54.43
2019-04-04T10:53:37.145Z,49.90
2019-04-04T10:56:08.787Z,55.57
2019-04-04T10:58:40.404Z,41.80
2019-04-04T11:01:11.605Z,42.97
2019-04-04T11:03:45.030Z,43.67
2019-04-04T11:06:16.771Z,45.57
2019-04-04T11:08:50.833Z,40.20
2019-04-04T11:11:27.470Z,41.13
2019-04-04T11:13:58.419Z,39.37
2019-04-04T11:19:01.624Z,41.83
2019-04-04T11:21:32.273Z,42.33
2019-04-04T11:23:46.535Z,39.43
2019-04-04T11:24:03.026Z,50.90
2019-04-04T11:26:34.605Z,43.50
2019-04-04T11:29:05.795Z,48.20
2019-04-04T11:31:36.384Z,40.90
2019-04-04T11:34:06.911Z,44.93
2019-04-04T11:36:37.704Z,41.90
2019-04-04T11:39:09.374Z,52.57
2019-04-04T11:41:40.445Z,48.27
2019-04-04T11:44:11.301Z,44.33
2019-04-04T11:46:41.853Z,50.10
2019-04-04T11:49:12.565Z,53.43
2019-04-04T11:51:43.599Z,45.90
2019-04-04T11:54:14.353Z,48.67
2019-04-04T11:56:45.645Z,46.37
2019-04-04T11:59:16.754Z,46.17
2019-04-04T12:01:47.806Z,49.50
2019-04-04T12:04:19.603Z,44.50
2019-04-04T12:06:50.736Z,50.77
2019-04-04T12:09:21.644Z,49.43
2019-04-04T12:11:52.511Z,48.53
2019-04-04T12:14:23.493Z,50.13
2019-04-04T12:16:54.555Z,49.53
2019-04-04T12:19:25.146Z,48.57
2019-04-04T12:21:55.895Z,47.87
2019-04-04T12:24:27.085Z,48.10
2019-04-04T12:27:09.344Z,53.53
2019-04-04T12:29:40.009Z,49.33
2019-04-04T12:32:10.661Z,52.80
2019-04-04T12:34:41.424Z,52.53
2019-04-04T12:37:12.801Z,57.17
2019-04-04T12:39:44.556Z,59.07
2019-04-04T12:42:15.500Z,54.33
2019-04-04T12:44:46.178Z,57.97
2019-04-04T12:47:16.769Z,59.93
2019-04-04T12:49:48.075Z,63.77
2019-04-04T12:52:19.588Z,62.20
2019-04-04T12:54:50.470Z,67.30
2019-04-04T12:57:21.199Z,63.33
2019-04-04T12:59:52.070Z,63.03
2019-04-04T13:02:23.669Z,66.60
2019-04-04T13:04:54.733Z,69.77
2019-04-04T13:07:25.344Z,77.07
2019-04-04T13:09:56.515Z,69.70
2019-04-04T13:12:27.703Z,73.03
2019-04-04T13:14:58.768Z,69.93
2019-04-04T13:17:29.742Z,76.47
2019-04-04T13:20:00.645Z,77.60
2019-04-04T13:22:31.330Z,76.63
2019-04-04T13:25:02.594Z,73.00
2019-04-04T13:27:33.799Z,75.03
2019-04-04T13:30:07.393Z,85.30
2019-04-04T13:32:38.312Z,76.40
2019-04-04T13:35:10.118Z,75.57
2019-04-04T13:37:41.296Z,78.93
2019-04-04T13:40:15.353Z,76.30
2019-04-04T13:42:52.723Z,69.03
2019-04-04T13:45:24.896Z,71.47
2019-04-04T13:47:55.110Z,73.50
2019-04-04T13:50:25.992Z,69.23
2019-04-04T13:52:56.722Z,70.30
2019-04-04T13:55:28.614Z,72.60
2019-04-04T13:57:59.507Z,65.43
2019-04-04T14:00:31.358Z,72.20
2019-04-04T14:03:02.714Z,71.80
2019-04-04T14:05:33.445Z,77.80
2019-04-04T14:08:04.244Z,67.73
2019-04-04T14:10:34.725Z,69.00
2019-04-04T14:13:06.890Z,72.90
2019-04-04T14:15:38.120Z,67.03
2019-04-04T14:18:22.816Z,73.40
2019-04-04T14:21:03.883Z,65.50
2019-04-04T14:23:31.455Z,73.50
2019-04-04T14:26:02.199Z,79.80
2019-04-04T14:28:35.839Z,77.43
2019-04-04T14:31:07.476Z,85.33
2019-04-04T14:33:38.612Z,73.60
2019-04-04T14:36:11.439Z,70.27
2019-04-04T14:38:42.140Z,64.50
2019-04-04T14:41:12.987Z,75.43
2019-04-04T14:43:44.191Z,77.37
2019-04-04T14:46:15.424Z,76.37
2019-04-04T14:48:46.750Z,73.93
2019-04-04T14:51:17.816Z,69.77
2019-04-04T14:53:48.635Z,70.23
2019-04-04T14:56:19.425Z,67.37
2019-04-04T14:58:50.368Z,67.73
2019-04-04T15:01:21.279Z,56.57
2019-04-04T15:03:52.450Z,68.33
2019-04-04T15:06:27.018Z,61.70
2019-04-04T15:08:58.151Z,64.83
2019-04-04T15:11:29.721Z,54.40
2019-04-04T15:14:00.635Z,53.43
2019-04-04T15:16:34.491Z,60.20
2019-04-04T15:19:05.997Z,55.43
2019-04-04T15:21:37.299Z,55.73
2019-04-04T15:24:08.727Z,56.77
2019-04-04T15:26:38.874Z,59.77
2019-04-04T15:29:11.410Z,57.33
2019-04-04T15:31:42.692Z,52.73
2019-04-04T15:34:13.610Z,57.30
2019-04-04T15:36:44.975Z,62.87
2019-04-04T15:39:16.180Z,60.57
2019-04-04T15:41:47.597Z,53.60
2019-04-04T15:44:20.673Z,55.87
2019-04-04T15:46:51.682Z,53.10
2019-04-04T15:49:25.489Z,63.30
2019-04-04T15:51:59.422Z,58.60
2019-04-04T15:54:30.480Z,52.87
2019-04-04T15:57:07.867Z,58.40
2019-04-04T15:59:39.468Z,53.77
2019-04-04T16:02:10.901Z,53.87
2019-04-04T16:04:42.366Z,53.57
2019-04-04T16:07:13.831Z,65.80
2019-04-04T16:09:44.672Z,61.57
2019-04-04T16:12:15.885Z,56.17
2019-04-04T16:14:46.838Z,51.50
2019-04-04T16:17:24.205Z,63.50
2019-04-04T16:19:55.477Z,62.97
2019-04-04T16:22:26.509Z,64.90
2019-04-04T16:25:19.045Z,61.77
2019-04-04T16:27:51.226Z,62.10
2019-04-04T16:30:22.379Z,58.33
2019-04-04T16:32:53.104Z,66.37
2019-04-04T16:35:24.075Z,67.30
2019-04-04T16:37:55.403Z,63.87
2019-04-04T16:40:26.240Z,66.30
2019-04-04T16:42:59.785Z,59.80
2019-04-04T16:45:31.371Z,63.03
2019-04-04T16:48:02.687Z,61.83
2019-04-04T16:50:33.576Z,64.43
2019-04-04T16:53:05.244Z,52.97
2019-04-04T16:55:39.172Z,72.40
2019-04-04T16:58:10.092Z,61.53
2019-04-04T17:00:40.938Z,69.50
2019-04-04T17:03:12.726Z,63.27
2019-04-04T17:05:47.394Z,66.27
2019-04-04T17:08:21.618Z,63.83
2019-04-04T17:10:53.487Z,66.73
2019-04-04T17:13:24.950Z,61.03
2019-04-04T17:15:56.736Z,63.67
2019-04-04T17:18:27.841Z,58.77
2019-04-04T17:20:58.576Z,65.53
2019-04-04T17:23:29.703Z,59.30
2019-04-04T17:26:01.856Z,62.83
2019-04-04T17:28:33.015Z,63.03
2019-04-04T17:31:07.013Z,62.90
2019-04-04T17:33:38.224Z,62.43
2019-04-04T17:36:09.701Z,62.63
2019-04-04T17:38:40.856Z,72.20
2019-04-04T17:41:12.077Z,65.17
2019-04-04T17:43:45.076Z,61.27
2019-04-04T17:46:15.888Z,62.27
2019-04-04T17:48:47.384Z,115.60
2019-04-04T17:51:19.170Z,79.10
2019-04-04T17:53:52.776Z,78.27
2019-04-04T17:56:23.834Z,74.77
2019-04-04T17:58:56.118Z,69.27
2019-04-04T18:01:27.132Z,68.27
2019-04-04T18:03:58.710Z,85.37
2019-04-04T18:06:29.936Z,79.77
2019-04-04T18:09:01.919Z,79.50
2019-04-04T18:11:34.707Z,78.20
2019-04-04T18:14:06.053Z,84.30
2019-04-04T18:16:37.885Z,71.27
2019-04-04T18:19:09.127Z,82.20
2019-04-04T18:21:40.510Z,85.00
2019-04-04T18:24:11.096Z,77.77
2019-04-04T18:26:41.807Z,84.20
2019-04-04T18:29:13.567Z,86.17
2019-04-04T18:31:44.380Z,82.80
2019-04-04T18:34:15.498Z,85.23
2019-04-04T18:36:46.236Z,72.80
2019-04-04T18:39:16.854Z,88.40
2019-04-04T18:41:47.651Z,76.93
2019-04-04T18:44:19.231Z,77.27
2019-04-04T18:46:50.088Z,74.50
2019-04-04T18:49:21.690Z,83.63
2019-04-04T18:51:53.168Z,78.33
2019-04-04T18:54:24.618Z,81.83
2019-04-04T18:56:58.536Z,76.53
2019-04-04T18:59:30.042Z,80.10
2019-04-04T19:02:01.162Z,69.20
2019-04-04T19:04:33.442Z,80.17
2019-04-04T19:07:05.521Z,87.70
2019-04-04T19:09:36.347Z,90.33
2019-04-04T19:12:07.382Z,68.47
2019-04-04T19:14:37.826Z,75.63
2019-04-04T19:17:08.770Z,78.57
2019-04-04T19:19:40.519Z,85.17
2019-04-04T19:22:11.644Z,74.40
2019-04-04T19:24:42.975Z,86.43
2019-04-04T19:27:13.684Z,80.23
2019-04-04T19:29:44.515Z,82.53
2019-04-04T19:32:15.866Z,84.67
2019-04-04T19:34:46.605Z,83.07
2019-04-04T19:37:17.591Z,91.37
2019-04-04T19:39:48.689Z,93.40
2019-04-04T19:42:19.848Z,93.00
2019-04-04T19:44:53.485Z,84.67
2019-04-04T19:47:23.066Z,77.87
2019-04-04T19:49:54.054Z,90.60
2019-04-04T19:52:25.149Z,86.67
2019-04-04T19:54:56.454Z,78.37
2019-04-04T19:57:27.419Z,85.13
2019-04-04T19:59:58.625Z,87.57
2019-04-04T20:02:29.355Z,90.20
2019-04-04T20:05:00.329Z,84.40
2019-04-04T20:07:31.013Z,90.20
2019-04-04T20:10:01.566Z,83.10
2019-04-04T20:12:32.447Z,88.97
2019-04-04T20:15:03.108Z,83.47
2019-04-04T20:17:34.132Z,85.17
2019-04-04T20:20:05.958Z,81.40
2019-04-04T20:22:36.787Z,90.67
2019-04-04T20:25:08.106Z,93.90
2019-04-04T20:27:39.043Z,90.13
2019-04-04T20:30:10.581Z,92.67
2019-04-04T20:32:42.121Z,92.53
2019-04-04T20:35:12.715Z,93.57
2019-04-04T20:37:43.370Z,102.97
2019-04-04T20:40:14.127Z,93.23
2019-04-04T20:42:44.653Z,87.93
2019-04-04T20:45:15.642Z,90.67
2019-04-04T20:47:56.939Z,93.20
2019-04-04T20:50:41.233Z,91.83
2019-04-04T20:53:16.584Z,94.57
2019-04-04T20:55:56.905Z,86.83
2019-04-04T20:58:29.278Z,94.57
2019-04-04T21:01:04.971Z,98.60
2019-04-04T21:03:44.995Z,96.90
2019-04-04T21:06:21.317Z,99.87
2019-04-04T21:08:56.462Z,102.17
2019-04-04T21:11:30.767Z,102.30
2019-04-04T21:14:05.045Z,96.63
2019-04-04T21:16:35.772Z,104.83
2019-04-04T21:19:06.168Z,100.73
2019-04-04T21:21:37.000Z,97.40
2019-04-04T21:24:07.443Z,102.40
2019-04-04T21:26:39.519Z,99.23
2019-04-04T21:29:10.216Z,91.97
2019-04-04T21:31:40.661Z,92.57
2019-04-04T21:34:11.192Z,95.60
2019-04-04T21:36:41.621Z,95.73
2019-04-04T21:39:12.086Z,86.80
2019-04-04T21:41:42.543Z,88.07
2019-04-04T21:44:13.169Z,97.33
2019-04-04T21:46:43.621Z,93.00
2019-04-04T21:49:15.142Z,85.97
2019-04-04T21:51:45.622Z,98.37
2019-04-04T21:54:16.025Z,91.27
2019-04-04T21:56:46.757Z,87.47
2019-04-04T21:59:17.154Z,82.70
2019-04-04T22:01:47.792Z,79.70
2019-04-04T22:04:18.210Z,91.60
2019-04-04T22:06:48.693Z,84.17
2019-04-04T22:09:19.452Z,82.27
2019-04-04T22:11:49.945Z,84.97
2019-04-04T22:14:22.309Z,79.40
2019-04-04T22:16:53.986Z,82.57
2019-04-04T22:19:24.448Z,84.33
2019-04-04T22:21:56.281Z,88.33
2019-04-04T22:24:26.657Z,87.40
2019-04-04T22:26:57.027Z,86.63
2019-04-04T22:29:27.588Z,91.63
2019-04-04T22:31:58.106Z,87.53
2019-04-04T22:34:28.683Z,88.27
2019-04-04T22:36:59.286Z,95.77
2019-04-04T22:39:29.885Z,95.20
2019-04-04T22:42:00.364Z,92.90
2019-04-04T22:44:35.099Z,102.43
2019-04-04T22:47:02.893Z,99.10
2019-04-04T22:49:33.263Z,100.83
2019-04-04T22:52:03.726Z,105.30
2019-04-04T22:54:34.284Z,96.30
2019-04-04T22:57:04.858Z,96.87
2019-04-04T22:59:35.438Z,96.83
2019-04-04T23:02:05.859Z,89.20
2019-04-04T23:04:36.293Z,99.73
2019-04-04T23:07:06.771Z,91.43
2019-04-04T23:09:37.164Z,95.03
2019-04-04T23:12:07.737Z,101.17
2019-04-04T23:14:48.113Z,93.67
2019-04-04T23:17:10.154Z,87.63
2019-04-04T23:19:40.487Z,105.33
2019-04-04T23:22:11.175Z,98.87
2019-04-04T23:24:41.561Z,100.80
2019-04-04T23:27:11.927Z,101.73
2019-04-04T23:29:43.512Z,105.60
2019-04-04T23:32:13.891Z,110.80
2019-04-04T23:34:44.526Z,100.90
2019-04-04T23:37:18.843Z,115.43
2019-04-04T23:39:49.341Z,112.13
2019-04-04T23:42:19.875Z,103.50
2019-04-04T23:45:09.571Z,105.87
2019-04-04T23:47:43.122Z,108.10
2019-04-04T23:50:12.395Z,109.13
2019-04-04T23:52:42.848Z,116.07
2019-04-04T23:55:14.302Z,112.90
2019-04-04T23:57:44.612Z,105.57
